Meteo Giornale » Osservazioni meteo Stati Uniti (USA) » Lancaster

ore: 15:53 - Osservazioni Meteo Lancaster
Lat. 40° 7' N Lon. 76° 17' W Alt. 123 metri s.l.m.

poco_nuvoloso

32 °C

Poco Nuvoloso

Temp. 24 Ore

21 °C

32 °C

Ovest

14.8 Km/h

Dew point 24 °C

Umidità 62 %

Visibilità  10 Km

Il sole sorge alle ore 06:33

Il sole tramonta alle ore 19:37

Data e Ora Cielo e Fenomeni T °C DP °C Um. % Pres. hPa Vis. km Vento km/h
Oggi h: 15:53 poco_nuvoloso Poco Nuvoloso 32 24 62 1014 10 O 14.8
Oggi h: 14:53 nuvoloso Nuvoloso 31 23 62 1015 10 O/SO 16.7
Oggi h: 13:53 molto_nuvoloso Molto Nuvoloso 30 23 66 1015 10 O/SO 14.8
Oggi h: 12:53 molto_nuvoloso Molto Nuvoloso 29 23 70 1015 10 O 13
Oggi h: 11:53 molto_nuvoloso Molto Nuvoloso 27 23 78 1016 10 O/SO 7.4
Oggi h: 10:53 poco_nuvoloso Poco Nuvoloso 26 23 83 1016 14 O 7.4
Oggi h: 09:53 poco_nuvoloso Poco Nuvoloso 26 23 83 1016 11 O 9.3
Oggi h: 08:53 foschia Foschia 23 22 94 1016 5 N 5.5
Oggi h: 07:53 foschia Foschia 22 22 100 1016 5 N 0
Oggi h: 06:53 coperto_pioggia Pioggia Foschia 21 21 100 1016 3 N 0
Oggi h: 06:24 coperto_pioggia Pioggia Foschia 21 21 100 1016 3 N 0
Oggi h: 06:00 foschia Foschia 21 21 100 1016 2 N 5.5
Oggi h: 05:53 foschia Foschia 21 21 100 1016 3 N 5.5
Oggi h: 05:51 foschia Foschia 21 21 100 1016 2 N 5.5
Oggi h: 05:38 foschia Foschia 21 21 100 1016 5 N 0
Oggi h: 05:26 foschia Foschia 21 21 100 1016 2 N 0
Oggi h: 04:53 foschia Foschia 21 21 100 1016 5 N 5.5
Oggi h: 03:53 foschia Foschia 22 21 94 1017 5 N 0
Oggi h: 02:53 foschia Foschia 22 21 94 1017 6 N 0
Oggi h: 01:53 foschia Foschia 22 21 94 1017 10 N 0
Oggi h: 00:53 foschia Foschia 22 22 100 1018 10 N 0
Ieri h: 23:53 molto_nuvoloso Molto Nuvoloso 22 21 94 1018 10 N 5.5
Ieri h: 22:53 coperto Coperto 23 21 88 1018 10 N 5.5
Ieri h: 21:53 molto_nuvoloso Molto Nuvoloso 24 20 78 1018 10 S 7.4
Ieri h: 20:53 nuvoloso Nuvoloso 24 20 78 1018 10 N 5.5
Ieri h: 19:53 sereno Sereno 24 20 78 1018 14 N 5.5
Ieri h: 18:53 sereno Sereno 26 21 73 1018 10 S 11.1
Ieri h: 17:53 sereno Sereno 26 21 73 1018 10 N 0
Ieri h: 16:53 molto_nuvoloso Molto Nuvoloso 26 19 65 1019 10 N 5.5